createdAt,value
2019-05-19T00:01:03.968Z,99.90
2019-05-19T00:05:59.633Z,99.90
2019-05-19T00:10:55.210Z,99.90
2019-05-19T00:15:50.774Z,99.90
2019-05-19T00:20:46.800Z,99.90
2019-05-19T00:25:42.348Z,99.90
2019-05-19T00:30:37.950Z,99.90
2019-05-19T00:35:34.935Z,99.90
2019-05-19T00:40:30.434Z,99.90
2019-05-19T00:45:25.982Z,99.90
2019-05-19T00:50:21.486Z,99.90
2019-05-19T00:55:17.966Z,99.90
2019-05-19T01:00:13.659Z,99.90
2019-05-19T01:05:09.409Z,99.90
2019-05-19T01:10:05.625Z,99.90
2019-05-19T01:15:01.165Z,99.90
2019-05-19T01:19:57.825Z,99.90
2019-05-19T01:24:53.312Z,99.90
2019-05-19T01:29:48.805Z,99.90
2019-05-19T01:34:44.897Z,99.90
2019-05-19T01:39:40.382Z,99.90
2019-05-19T01:44:35.864Z,99.90
2019-05-19T01:49:31.358Z,99.90
2019-05-19T01:54:27.974Z,99.90
2019-05-19T01:59:23.465Z,99.90
2019-05-19T02:04:19.008Z,99.90
2019-05-19T02:09:14.573Z,99.90
2019-05-19T02:14:10.094Z,99.90
2019-05-19T02:19:12.510Z,99.90
2019-05-19T02:24:08.186Z,99.90
2019-05-19T02:29:07.553Z,99.90
2019-05-19T02:34:07.671Z,99.90
2019-05-19T02:39:08.137Z,99.90
2019-05-19T02:44:05.613Z,99.90
2019-05-19T02:49:02.862Z,99.90
2019-05-19T02:54:00.615Z,99.90
2019-05-19T02:58:57.440Z,99.90
2019-05-19T03:03:52.996Z,99.90
2019-05-19T03:08:48.537Z,99.90
2019-05-19T03:13:44.191Z,99.90
2019-05-19T03:18:39.660Z,99.90
2019-05-19T03:23:35.115Z,99.90
2019-05-19T03:28:30.623Z,99.90
2019-05-19T03:33:28.736Z,99.90
2019-05-19T03:38:24.801Z,99.90
2019-05-19T03:43:20.304Z,99.90
2019-05-19T03:48:15.789Z,99.90
2019-05-19T03:53:11.252Z,99.90
2019-05-19T03:58:06.722Z,99.90
2019-05-19T04:03:02.214Z,99.90
2019-05-19T04:07:57.701Z,99.90
2019-05-19T04:12:53.192Z,99.90
2019-05-19T04:17:48.674Z,99.90
2019-05-19T04:22:44.276Z,99.90
2019-05-19T04:27:39.857Z,99.90
2019-05-19T04:32:35.309Z,99.90
2019-05-19T04:37:30.883Z,99.90
2019-05-19T04:42:26.719Z,99.90
2019-05-19T04:47:22.186Z,99.90
2019-05-19T04:52:17.694Z,99.90
2019-05-19T04:57:17.418Z,99.90
2019-05-19T05:02:15.874Z,99.90
2019-05-19T05:07:11.398Z,99.90
2019-05-19T05:12:06.927Z,99.90
2019-05-19T05:17:03.505Z,99.90
2019-05-19T05:21:58.986Z,99.90
2019-05-19T05:26:54.554Z,99.90
2019-05-19T05:31:50.178Z,99.90
2019-05-19T05:36:45.719Z,99.90
2019-05-19T05:41:41.194Z,99.90
2019-05-19T05:46:36.676Z,99.90
2019-05-19T05:51:32.198Z,99.90
2019-05-19T05:56:27.738Z,99.90
2019-05-19T06:01:23.251Z,99.90
2019-05-19T06:06:18.817Z,99.90
2019-05-19T06:11:22.747Z,99.90
2019-05-19T06:16:39.442Z,99.90
2019-05-19T06:21:50.432Z,99.90
2019-05-19T06:26:45.912Z,99.90
2019-05-19T06:31:42.130Z,99.90
2019-05-19T06:36:37.687Z,99.90
2019-05-19T06:41:33.242Z,99.90
2019-05-19T06:46:28.847Z,99.90
2019-05-19T06:51:24.438Z,99.90
2019-05-19T06:56:19.986Z,99.90
2019-05-19T07:01:15.524Z,99.90
2019-05-19T07:06:11.080Z,99.90
2019-05-19T07:11:06.643Z,99.90
2019-05-19T07:16:02.175Z,99.90
2019-05-19T07:20:57.764Z,99.90
2019-05-19T07:25:53.733Z,99.90
2019-05-19T07:30:49.737Z,99.90
2019-05-19T07:35:45.381Z,99.90
2019-05-19T07:40:40.951Z,99.90
2019-05-19T07:45:36.642Z,99.90
2019-05-19T07:50:32.234Z,99.90
2019-05-19T07:55:27.959Z,99.90
2019-05-19T08:00:23.596Z,99.90
2019-05-19T08:05:19.134Z,99.90
2019-05-19T08:10:14.799Z,99.90
2019-05-19T08:15:11.423Z,99.90
2019-05-19T08:20:07.501Z,99.90
2019-05-19T08:25:04.579Z,99.90
2019-05-19T08:30:00.192Z,99.90
2019-05-19T08:34:55.731Z,99.90
2019-05-19T08:39:51.746Z,99.50
2019-05-19T08:44:48.287Z,98.40
2019-05-19T08:49:43.929Z,98.20
2019-05-19T08:54:39.462Z,98.30
2019-05-19T08:59:36.115Z,97.50
2019-05-19T09:04:31.671Z,96.40
2019-05-19T09:09:27.317Z,95.10
2019-05-19T09:14:23.020Z,95.90
2019-05-19T09:19:18.574Z,95.50
2019-05-19T09:24:29.301Z,95.70
2019-05-19T09:29:11.464Z,95.00
2019-05-19T09:34:07.099Z,92.60
2019-05-19T09:39:05.052Z,92.60
2019-05-19T09:44:00.709Z,90.70
2019-05-19T09:49:14.614Z,88.70
2019-05-19T09:54:10.351Z,87.00
2019-05-19T09:59:06.959Z,85.60
2019-05-19T10:04:02.588Z,81.30
2019-05-19T10:08:59.231Z,83.20
2019-05-19T10:13:55.631Z,79.30
2019-05-19T10:18:51.344Z,78.30
2019-05-19T10:23:46.943Z,80.30
2019-05-19T10:28:42.578Z,79.00
2019-05-19T10:33:38.282Z,80.60
2019-05-19T10:38:33.862Z,80.90
2019-05-19T10:43:29.423Z,79.40
2019-05-19T10:48:25.179Z,80.70
2019-05-19T10:53:20.806Z,78.60
2019-05-19T10:58:16.385Z,78.70
2019-05-19T11:03:12.082Z,78.60
2019-05-19T11:08:09.462Z,78.90
2019-05-19T11:13:05.207Z,78.60
2019-05-19T11:18:00.794Z,79.20
2019-05-19T11:22:56.910Z,80.10
2019-05-19T11:27:52.479Z,81.40
2019-05-19T11:32:48.482Z,81.40
2019-05-19T11:37:46.842Z,79.80
2019-05-19T11:42:42.465Z,79.50
2019-05-19T11:47:37.980Z,81.30
2019-05-19T11:52:33.610Z,76.80
2019-05-19T11:57:29.162Z,76.30
2019-05-19T12:02:24.726Z,76.60
2019-05-19T12:07:20.290Z,73.40
2019-05-19T12:12:15.842Z,71.70
2019-05-19T12:17:11.481Z,72.50
2019-05-19T12:22:07.004Z,69.40
2019-05-19T12:27:02.538Z,69.80
2019-05-19T12:31:58.066Z,73.10
2019-05-19T12:36:53.734Z,73.50
2019-05-19T12:41:49.295Z,75.60
2019-05-19T12:46:44.856Z,83.30
2019-05-19T12:51:40.561Z,89.80
2019-05-19T12:56:39.537Z,97.30
2019-05-19T13:01:33.534Z,99.40
2019-05-19T13:06:29.291Z,99.90
2019-05-19T13:11:25.048Z,99.90
2019-05-19T13:16:22.787Z,99.90
2019-05-19T13:21:20.306Z,99.90
2019-05-19T13:26:15.974Z,99.90
2019-05-19T13:31:11.818Z,99.90
2019-05-19T13:36:08.481Z,99.90
2019-05-19T13:41:04.914Z,99.90
2019-05-19T13:46:00.595Z,99.90
2019-05-19T13:50:56.287Z,99.90
2019-05-19T13:55:51.903Z,99.90
2019-05-19T14:00:47.662Z,99.90
2019-05-19T14:05:43.460Z,99.90
2019-05-19T14:10:39.027Z,99.90
2019-05-19T14:15:34.647Z,99.90
2019-05-19T14:20:30.199Z,99.90
2019-05-19T14:25:25.822Z,99.90
2019-05-19T14:30:21.402Z,99.90
2019-05-19T14:35:17.055Z,99.90
2019-05-19T14:40:13.748Z,99.90
2019-05-19T14:45:32.579Z,99.90
2019-05-19T14:50:28.295Z,99.90
2019-05-19T14:55:23.988Z,99.90
2019-05-19T15:00:21.135Z,99.90
2019-05-19T15:05:16.869Z,99.90
2019-05-19T15:10:12.583Z,99.90
2019-05-19T15:15:08.390Z,99.90
2019-05-19T15:20:07.912Z,99.90
2019-05-19T15:25:05.024Z,99.90
2019-05-19T15:30:12.448Z,99.90
2019-05-19T15:34:58.006Z,99.90
2019-05-19T15:39:53.711Z,99.90
2019-05-19T15:44:49.448Z,99.90
2019-05-19T15:49:45.108Z,99.90
2019-05-19T15:54:40.674Z,99.90
2019-05-19T15:59:36.297Z,99.90
2019-05-19T16:04:31.956Z,99.90
2019-05-19T16:09:27.548Z,99.90
2019-05-19T16:14:23.178Z,99.90
2019-05-19T16:19:18.752Z,99.90
2019-05-19T16:24:14.331Z,99.90
2019-05-19T16:29:09.958Z,99.90
2019-05-19T16:34:05.644Z,99.90
2019-05-19T16:44:16.311Z,99.90
2019-05-19T16:49:11.960Z,99.90
2019-05-19T16:54:12.068Z,99.90
2019-05-19T16:59:07.727Z,99.90
2019-05-19T17:04:25.419Z,99.90
2019-05-19T17:09:21.100Z,99.90
2019-05-19T17:14:16.683Z,99.90
2019-05-19T17:19:10.531Z,99.90
2019-05-19T17:24:06.162Z,99.90
2019-05-19T17:29:02.157Z,99.90
2019-05-19T17:33:58.659Z,99.90
2019-05-19T17:38:54.318Z,99.90
2019-05-19T17:43:50.057Z,99.90
2019-05-19T17:48:45.632Z,99.90
2019-05-19T17:53:41.651Z,99.90
2019-05-19T17:58:37.542Z,99.90
2019-05-19T18:03:35.501Z,99.90
2019-05-19T18:08:31.102Z,99.90
2019-05-19T18:13:48.415Z,99.90
2019-05-19T18:18:44.141Z,99.90
2019-05-19T18:23:41.071Z,99.90
2019-05-19T18:28:36.657Z,99.90
2019-05-19T18:33:33.554Z,99.90
2019-05-19T18:38:30.408Z,99.90
2019-05-19T18:43:26.413Z,99.90
2019-05-19T18:48:23.436Z,99.90
2019-05-19T18:53:21.214Z,99.90
2019-05-19T18:58:17.492Z,99.90
2019-05-19T19:03:13.906Z,99.90
2019-05-19T19:08:11.146Z,99.90
2019-05-19T19:13:12.264Z,99.90
2019-05-19T19:18:08.127Z,99.90
2019-05-19T19:23:09.488Z,99.90
2019-05-19T19:28:05.494Z,99.90
2019-05-19T19:33:01.821Z,99.90
2019-05-19T19:37:57.998Z,99.90
2019-05-19T19:42:54.393Z,99.90
2019-05-19T19:47:50.125Z,99.90
2019-05-19T19:52:47.291Z,99.90
2019-05-19T19:57:43.352Z,99.90
2019-05-19T20:02:39.467Z,99.90
2019-05-19T20:07:35.511Z,99.90
2019-05-19T20:12:34.043Z,99.90
2019-05-19T20:17:31.313Z,99.90
2019-05-19T20:22:27.827Z,99.90
2019-05-19T20:27:23.765Z,99.90
2019-05-19T20:32:19.620Z,99.90
2019-05-19T20:37:16.806Z,99.90
2019-05-19T20:42:12.997Z,99.90
2019-05-19T20:47:09.223Z,99.90
2019-05-19T20:52:05.178Z,99.90
2019-05-19T20:57:00.834Z,99.90
2019-05-19T21:01:56.391Z,99.90
2019-05-19T21:06:53.000Z,99.90
2019-05-19T21:11:48.543Z,99.90
2019-05-19T21:16:44.599Z,99.90
2019-05-19T21:22:02.595Z,99.90
2019-05-19T21:26:58.107Z,99.90
2019-05-19T21:31:53.662Z,99.90
2019-05-19T21:36:49.170Z,99.90
2019-05-19T21:41:44.726Z,99.90
2019-05-19T21:46:40.390Z,99.90
2019-05-19T21:51:35.930Z,99.90
2019-05-19T21:56:31.495Z,99.90
2019-05-19T22:01:27.090Z,99.90
2019-05-19T22:06:24.318Z,99.90
2019-05-19T22:11:19.889Z,99.90
2019-05-19T22:16:15.472Z,99.90
2019-05-19T22:21:11.053Z,99.90
2019-05-19T22:26:06.550Z,99.90
2019-05-19T22:31:06.358Z,99.90
2019-05-19T22:36:01.975Z,99.90
2019-05-19T22:40:57.482Z,99.90
2019-05-19T22:45:53.055Z,99.90
2019-05-19T22:50:48.588Z,99.90
2019-05-19T22:55:45.256Z,99.90
2019-05-19T23:00:40.841Z,99.90
2019-05-19T23:05:36.447Z,99.90
2019-05-19T23:10:32.063Z,99.90
2019-05-19T23:15:27.671Z,99.90
2019-05-19T23:20:23.514Z,99.90
2019-05-19T23:25:19.169Z,99.90
2019-05-19T23:30:14.893Z,99.90
2019-05-19T23:35:10.505Z,99.90
2019-05-19T23:40:06.399Z,99.90
2019-05-19T23:45:01.940Z,99.90
2019-05-19T23:49:58.652Z,99.90
2019-05-19T23:54:54.223Z,99.90
2019-05-19T23:59:49.785Z,99.90
